createdAt,value
2023-03-24T00:02:53.042Z,77.06
2023-03-24T00:08:02.062Z,78.54
2023-03-24T00:13:06.022Z,79.12
2023-03-24T00:18:10.795Z,79.86
2023-03-24T00:23:15.430Z,80.15
2023-03-24T00:28:18.210Z,80.63
2023-03-24T00:33:20.996Z,81.78
2023-03-24T00:38:25.154Z,81.99
2023-03-24T00:43:29.148Z,83.28
2023-03-24T00:48:32.674Z,83.80
2023-03-24T00:53:37.772Z,83.96
2023-03-24T00:58:40.625Z,84.67
2023-03-24T01:03:48.193Z,85.25
2023-03-24T01:08:53.954Z,84.82
2023-03-24T01:13:57.022Z,85.05
2023-03-24T01:19:00.499Z,84.69
2023-03-24T01:24:06.003Z,84.99
2023-03-24T01:29:08.939Z,85.61
2023-03-24T01:34:11.827Z,86.12
2023-03-24T01:39:16.027Z,85.34
2023-03-24T01:44:31.292Z,85.99
2023-03-24T01:49:38.561Z,85.86
2023-03-24T01:54:47.025Z,84.48
2023-03-24T01:59:55.270Z,85.13
2023-03-24T02:05:18.884Z,84.77
2023-03-24T02:10:24.899Z,84.13
2023-03-24T02:15:31.169Z,85.21
2023-03-24T02:21:03.610Z,85.88
2023-03-24T02:26:36.256Z,84.81
2023-03-24T02:32:05.685Z,85.67
2023-03-24T02:37:43.553Z,87.13
2023-03-24T02:43:17.569Z,87.02
2023-03-24T02:48:28.644Z,87.60
2023-03-24T02:53:38.940Z,87.04
2023-03-24T02:59:03.152Z,86.98
2023-03-24T03:04:13.442Z,86.65
2023-03-24T03:09:20.037Z,85.50
2023-03-24T03:14:29.762Z,87.05
2023-03-24T03:19:38.653Z,86.56
2023-03-24T03:24:44.288Z,85.66
2023-03-24T03:29:54.307Z,85.74
2023-03-24T03:35:01.320Z,88.25
2023-03-24T03:40:09.939Z,90.67
2023-03-24T03:45:17.164Z,91.31
2023-03-24T03:50:20.239Z,91.94
2023-03-24T03:55:23.237Z,89.95
2023-03-24T04:00:27.557Z,90.01
2023-03-24T04:05:48.362Z,90.16
2023-03-24T04:11:19.095Z,90.39
2023-03-24T04:17:00.208Z,88.74
2023-03-24T04:22:25.400Z,87.40
2023-03-24T04:27:48.821Z,85.77
2023-03-24T04:33:00.283Z,84.76
2023-03-24T04:38:09.349Z,83.67
2023-03-24T04:43:18.380Z,83.22
2023-03-24T04:48:22.626Z,84.85
2023-03-24T04:53:40.296Z,84.57
2023-03-24T04:58:43.258Z,84.38
2023-03-24T05:03:47.804Z,84.65
2023-03-24T05:08:52.249Z,85.26
2023-03-24T05:13:55.393Z,86.00
2023-03-24T05:18:59.738Z,85.35
2023-03-24T05:24:05.642Z,84.11
2023-03-24T05:29:10.351Z,84.31
2023-03-24T05:34:14.919Z,83.52
2023-03-24T05:39:29.488Z,84.63
2023-03-24T05:44:39.413Z,84.95
2023-03-24T05:49:51.920Z,85.13
2023-03-24T05:54:55.532Z,84.27
2023-03-24T06:00:04.676Z,84.18
2023-03-24T06:05:28.032Z,84.72
2023-03-24T06:10:31.014Z,87.73
2023-03-24T06:15:36.398Z,84.71
2023-03-24T06:20:58.073Z,83.74
2023-03-24T06:26:10.168Z,83.00
2023-03-24T06:31:21.454Z,82.75
2023-03-24T06:36:28.254Z,81.23
2023-03-24T06:41:31.416Z,77.86
2023-03-24T06:46:36.464Z,73.82
2023-03-24T06:51:40.862Z,73.15
2023-03-24T06:56:44.278Z,73.30
2023-03-24T07:01:49.419Z,73.40
2023-03-24T07:07:12.591Z,75.49
2023-03-24T07:12:26.541Z,76.01
2023-03-24T07:17:29.585Z,74.48
2023-03-24T07:22:56.236Z,74.07
2023-03-24T07:28:01.857Z,73.08
2023-03-24T07:33:06.789Z,70.94
2023-03-24T07:38:11.353Z,71.31
2023-03-24T07:43:14.311Z,70.65
2023-03-24T07:48:35.707Z,69.02
2023-03-24T07:53:40.387Z,69.48
2023-03-24T08:04:14.808Z,68.66
2023-03-24T08:09:37.321Z,66.19
2023-03-24T08:14:40.312Z,66.41
2023-03-24T08:19:56.121Z,66.70
2023-03-24T08:25:03.014Z,67.08
2023-03-24T08:30:07.330Z,66.28
2023-03-24T08:35:12.354Z,65.85
2023-03-24T08:40:19.357Z,66.00
2023-03-24T08:45:24.077Z,65.71
2023-03-24T08:50:29.052Z,66.12
2023-03-24T08:55:33.619Z,63.50
2023-03-24T09:00:36.489Z,63.62
2023-03-24T09:05:44.466Z,61.34
2023-03-24T09:10:49.618Z,63.36
2023-03-24T09:15:54.425Z,61.59
2023-03-24T09:20:57.483Z,60.14
2023-03-24T09:26:02.857Z,59.11
2023-03-24T09:31:07.132Z,60.53
2023-03-24T09:36:11.962Z,59.76
2023-03-24T09:41:19.198Z,59.53
2023-03-24T09:46:30.284Z,61.25
2023-03-24T09:51:38.019Z,57.84
2023-03-24T09:56:47.273Z,57.23
2023-03-24T10:01:52.187Z,57.50
2023-03-24T10:07:01.759Z,57.67
2023-03-24T10:12:22.862Z,58.83
2023-03-24T10:17:32.325Z,57.17
2023-03-24T10:22:40.909Z,56.73
2023-03-24T10:27:50.002Z,58.12
2023-03-24T10:32:52.830Z,57.51
2023-03-24T10:37:59.200Z,57.95
2023-03-24T10:43:09.696Z,59.98
2023-03-24T10:48:14.901Z,58.73
2023-03-24T10:53:20.066Z,57.47
2023-03-24T10:58:31.177Z,57.08
2023-03-24T11:03:38.334Z,56.38
2023-03-24T11:08:42.037Z,55.58
2023-03-24T11:13:55.697Z,53.68
2023-03-24T11:19:01.591Z,53.78
2023-03-24T11:24:11.696Z,52.70
2023-03-24T11:29:19.575Z,51.90
2023-03-24T11:34:26.920Z,52.26
2023-03-24T11:39:31.220Z,53.08
2023-03-24T11:44:45.016Z,54.06
2023-03-24T11:49:53.196Z,53.17
2023-03-24T11:54:56.806Z,52.88
2023-03-24T12:00:09.277Z,54.08
2023-03-24T12:05:30.026Z,52.33
2023-03-24T12:10:42.147Z,53.74
2023-03-24T12:16:00.321Z,52.34
2023-03-24T12:21:10.934Z,54.66
2023-03-24T12:26:19.867Z,58.71
2023-03-24T12:31:52.976Z,58.96
2023-03-24T12:37:03.384Z,54.48
2023-03-24T12:42:12.644Z,55.33
2023-03-24T12:47:31.422Z,55.18
2023-03-24T12:52:57.970Z,52.89
2023-03-24T12:58:15.831Z,51.79
2023-03-24T13:03:28.214Z,55.21
2023-03-24T13:08:32.170Z,54.76
2023-03-24T13:13:39.432Z,53.83
2023-03-24T13:18:47.151Z,53.46
2023-03-24T13:23:56.665Z,50.32
2023-03-24T13:29:14.234Z,44.66
2023-03-24T13:34:26.675Z,49.75
2023-03-24T13:39:31.140Z,49.65
2023-03-24T13:44:39.781Z,47.95
2023-03-24T13:49:53.329Z,48.99
2023-03-24T13:54:59.534Z,49.86
2023-03-24T14:00:17.862Z,49.52
2023-03-24T14:05:43.257Z,49.17
2023-03-24T14:10:48.748Z,48.40
2023-03-24T14:15:53.139Z,48.59
2023-03-24T14:21:03.798Z,48.18
2023-03-24T14:26:08.196Z,48.01
2023-03-24T14:31:24.503Z,46.54
2023-03-24T14:36:31.440Z,45.02
2023-03-24T14:41:39.126Z,46.88
2023-03-24T14:46:44.763Z,47.87
2023-03-24T14:51:58.084Z,47.50
2023-03-24T14:57:01.866Z,47.83
2023-03-24T15:02:17.308Z,48.37
2023-03-24T15:07:21.499Z,47.93
2023-03-24T15:12:24.488Z,48.42
2023-03-24T15:17:27.386Z,47.73
2023-03-24T15:22:41.693Z,48.67
2023-03-24T15:33:22.789Z,95.91
2023-03-24T15:38:31.809Z,94.83
2023-03-24T15:43:34.742Z,94.71
2023-03-24T15:48:37.817Z,94.23
2023-03-24T15:53:45.898Z,93.70
2023-03-24T15:58:52.220Z,93.57
2023-03-24T16:03:55.766Z,91.31
2023-03-24T16:09:08.439Z,90.00
2023-03-24T16:14:19.960Z,89.14
2023-03-24T16:19:22.916Z,88.01
2023-03-24T16:24:27.076Z,84.09
2023-03-24T16:29:29.820Z,82.75
2023-03-24T16:34:32.517Z,81.71
2023-03-24T16:39:36.640Z,80.42
2023-03-24T16:44:39.416Z,77.95
2023-03-24T16:49:42.177Z,78.05
2023-03-24T16:54:46.304Z,80.78
2023-03-24T16:59:49.167Z,81.42
2023-03-24T17:04:52.194Z,81.55
2023-03-24T17:09:56.419Z,81.41
2023-03-24T17:14:59.192Z,79.86
2023-03-24T17:20:04.663Z,79.54
2023-03-24T17:25:11.656Z,81.67
2023-03-24T17:30:17.992Z,79.87
2023-03-24T17:35:22.385Z,80.53
2023-03-24T17:40:26.586Z,79.03
2023-03-24T17:45:29.428Z,78.86
2023-03-24T17:50:32.220Z,78.88
2023-03-24T17:55:36.380Z,80.02
2023-03-24T18:00:39.340Z,78.11
2023-03-24T18:05:43.668Z,77.87
2023-03-24T18:10:49.978Z,77.30
2023-03-24T18:15:52.907Z,76.86
2023-03-24T18:20:56.073Z,77.67
2023-03-24T18:26:01.647Z,77.58
2023-03-24T18:31:06.462Z,77.66
2023-03-24T18:36:10.999Z,78.14
2023-03-24T18:41:16.850Z,76.98
2023-03-24T18:46:19.853Z,76.73
2023-03-24T18:51:23.648Z,76.70
2023-03-24T18:56:28.256Z,75.64
2023-03-24T19:01:33.222Z,76.17
2023-03-24T19:06:37.231Z,75.57
2023-03-24T19:11:43.485Z,74.29
2023-03-24T19:16:46.859Z,74.40
2023-03-24T19:21:50.282Z,73.53
2023-03-24T19:26:55.301Z,73.15
2023-03-24T19:31:58.234Z,73.01
2023-03-24T19:37:01.205Z,72.60
2023-03-24T19:42:07.715Z,72.47
2023-03-24T19:47:11.642Z,71.85
2023-03-24T19:52:14.650Z,71.96
2023-03-24T19:57:18.912Z,71.68
2023-03-24T20:02:21.995Z,71.79
2023-03-24T20:07:24.923Z,72.06
2023-03-24T20:12:29.186Z,72.38
2023-03-24T20:17:37.372Z,73.37
2023-03-24T20:22:42.072Z,73.33
2023-03-24T20:27:47.528Z,73.63
2023-03-24T20:32:50.382Z,73.58
2023-03-24T20:37:53.182Z,72.95
2023-03-24T20:42:57.413Z,72.47
2023-03-24T20:48:00.306Z,71.91
2023-03-24T20:53:03.075Z,71.55
2023-03-24T20:58:08.286Z,71.51
2023-03-24T21:03:11.742Z,71.42
2023-03-24T21:08:14.656Z,71.31
2023-03-24T21:13:21.633Z,71.28
2023-03-24T21:18:24.615Z,71.48
2023-03-24T21:23:27.402Z,71.42
2023-03-24T21:28:32.291Z,71.08
2023-03-24T21:33:36.301Z,70.81
2023-03-24T21:38:39.984Z,70.67
2023-03-24T21:43:46.949Z,70.42
2023-03-24T21:48:55.525Z,69.84
2023-03-24T21:54:03.267Z,69.07
2023-03-24T21:59:07.294Z,68.67
2023-03-24T22:04:10.932Z,69.19
2023-03-24T22:09:13.858Z,69.78
2023-03-24T22:14:19.101Z,69.21
2023-03-24T22:19:22.092Z,68.67
2023-03-24T22:24:25.048Z,68.22
2023-03-24T22:29:29.981Z,68.38
2023-03-24T22:34:33.081Z,69.17
2023-03-24T22:39:36.082Z,68.80
2023-03-24T22:44:41.943Z,69.03
2023-03-24T22:49:45.077Z,68.46
2023-03-24T22:54:48.192Z,68.91
2023-03-24T22:59:52.534Z,68.56
2023-03-24T23:04:55.572Z,69.04
2023-03-24T23:10:00.236Z,69.60
2023-03-24T23:15:05.737Z,68.82
2023-03-24T23:20:10.787Z,69.36
2023-03-24T23:25:14.550Z,69.99
2023-03-24T23:30:19.664Z,68.74
2023-03-24T23:35:22.454Z,70.36
2023-03-24T23:40:25.487Z,69.09
2023-03-24T23:45:29.650Z,68.68
2023-03-24T23:50:32.630Z,69.38
2023-03-24T23:55:35.416Z,68.90
